Dolores, Argentina
Current Conditions -  °F | °C
As of 10:00 PM on Wednesday 22 Oct 2014 (Local Time) from SAZM Reporting Station
Broken Clouds Broken Clouds  
Wind Chill: 18°   Ceiling: 8000
Heat Index: 18°   Visibility: 6mi
Dew Point: 14°   Wind: 9mph
Humidity: 77%   Direction: 200°SSW
Pressure: 30"   Gusts: NA
Location:  36.33°S, 57.69°W
Report Text: SAZM 230100Z 20008KT 9999 FEW030 BKN08018/14 Q1016
Loading
Personal Weather Stations






























Interactive Weather Map
Tropical Storm Tracking
New forecast layout! Learn more

10-Day Weather Forecast

Advertisements
Track Severe Weather on mobile